sensor_id;sensor_type;location;lat;lon;timestamp;temperature;humidity
11239;DHT22;5677;48.488;13.436;2022-07-29T00:00:50;24.00;55.70
11239;DHT22;5677;48.488;13.436;2022-07-29T00:03:17;24.00;55.70
11239;DHT22;5677;48.488;13.436;2022-07-29T00:05:45;24.00;55.80
11239;DHT22;5677;48.488;13.436;2022-07-29T00:08:12;24.00;55.80
11239;DHT22;5677;48.488;13.436;2022-07-29T00:10:41;24.00;55.80
11239;DHT22;5677;48.488;13.436;2022-07-29T00:13:08;23.90;55.80
11239;DHT22;5677;48.488;13.436;2022-07-29T00:15:35;24.00;55.90
11239;DHT22;5677;48.488;13.436;2022-07-29T00:18:02;23.90;55.90
11239;DHT22;5677;48.488;13.436;2022-07-29T00:20:29;24.00;56.00
11239;DHT22;5677;48.488;13.436;2022-07-29T00:22:57;23.90;56.00
11239;DHT22;5677;48.488;13.436;2022-07-29T00:25:24;24.00;56.00
11239;DHT22;5677;48.488;13.436;2022-07-29T00:27:51;24.00;56.10
11239;DHT22;5677;48.488;13.436;2022-07-29T00:30:18;23.90;56.10
11239;DHT22;5677;48.488;13.436;2022-07-29T00:32:45;23.90;56.10
11239;DHT22;5677;48.488;13.436;2022-07-29T00:35:12;23.90;56.20
11239;DHT22;5677;48.488;13.436;2022-07-29T00:37:58;23.90;56.10
11239;DHT22;5677;48.488;13.436;2022-07-29T00:40:25;23.90;56.20
11239;DHT22;5677;48.488;13.436;2022-07-29T00:42:52;23.90;56.20
11239;DHT22;5677;48.488;13.436;2022-07-29T00:45:19;23.90;56.20
11239;DHT22;5677;48.488;13.436;2022-07-29T00:47:47;23.90;56.20
11239;DHT22;5677;48.488;13.436;2022-07-29T00:50:14;23.90;56.20
11239;DHT22;5677;48.488;13.436;2022-07-29T00:52:42;23.90;56.30
11239;DHT22;5677;48.488;13.436;2022-07-29T00:55:12;23.90;56.30
11239;DHT22;5677;48.488;13.436;2022-07-29T00:57:41;23.90;56.30
11239;DHT22;5677;48.488;13.436;2022-07-29T01:00:11;23.90;56.30
11239;DHT22;5677;48.488;13.436;2022-07-29T01:02:40;23.90;56.30
11239;DHT22;5677;48.488;13.436;2022-07-29T01:05:08;23.90;56.30
11239;DHT22;5677;48.488;13.436;2022-07-29T01:07:36;23.90;56.30
11239;DHT22;5677;48.488;13.436;2022-07-29T01:10:04;23.90;56.30
11239;DHT22;5677;48.488;13.436;2022-07-29T01:12:37;23.90;56.40
11239;DHT22;5677;48.488;13.436;2022-07-29T01:15:06;23.90;56.30
11239;DHT22;5677;48.488;13.436;2022-07-29T01:17:38;23.90;56.30
11239;DHT22;5677;48.488;13.436;2022-07-29T01:20:14;23.90;56.40
11239;DHT22;5677;48.488;13.436;2022-07-29T01:26:29;23.90;56.40
11239;DHT22;5677;48.488;13.436;2022-07-29T01:29:09;23.90;56.40
11239;DHT22;5677;48.488;13.436;2022-07-29T01:31:43;23.90;56.40
11239;DHT22;5677;48.488;13.436;2022-07-29T01:34:33;23.90;56.40
11239;DHT22;5677;48.488;13.436;2022-07-29T01:37:15;23.90;56.40
11239;DHT22;5677;48.488;13.436;2022-07-29T01:39:47;23.90;56.40
11239;DHT22;5677;48.488;13.436;2022-07-29T01:42:26;23.90;56.50
11239;DHT22;5677;48.488;13.436;2022-07-29T01:45:00;23.90;56.40
11239;DHT22;5677;48.488;13.436;2022-07-29T01:47:34;23.90;56.50
11239;DHT22;5677;48.488;13.436;2022-07-29T01:50:08;23.90;56.50
11239;DHT22;5677;48.488;13.436;2022-07-29T01:52:42;23.90;56.50
11239;DHT22;5677;48.488;13.436;2022-07-29T01:55:15;23.90;56.50
11239;DHT22;5677;48.488;13.436;2022-07-29T01:57:46;23.90;56.50
11239;DHT22;5677;48.488;13.436;2022-07-29T02:00:17;23.90;56.50
11239;DHT22;5677;48.488;13.436;2022-07-29T02:02:47;23.90;56.50
11239;DHT22;5677;48.488;13.436;2022-07-29T02:05:18;23.90;56.50
11239;DHT22;5677;48.488;13.436;2022-07-29T02:07:50;23.90;56.50
11239;DHT22;5677;48.488;13.436;2022-07-29T02:10:22;23.90;55.90
11239;DHT22;5677;48.488;13.436;2022-07-29T02:12:54;23.90;56.20
11239;DHT22;5677;48.488;13.436;2022-07-29T02:15:24;23.90;56.40
11239;DHT22;5677;48.488;13.436;2022-07-29T02:17:58;23.80;56.30
11239;DHT22;5677;48.488;13.436;2022-07-29T02:20:28;23.80;56.30
11239;DHT22;5677;48.488;13.436;2022-07-29T02:22:57;23.80;56.30
11239;DHT22;5677;48.488;13.436;2022-07-29T02:25:26;23.80;56.30
11239;DHT22;5677;48.488;13.436;2022-07-29T02:27:55;23.80;56.30
11239;DHT22;5677;48.488;13.436;2022-07-29T02:30:25;23.80;56.30
11239;DHT22;5677;48.488;13.436;2022-07-29T02:32:55;23.80;56.40
11239;DHT22;5677;48.488;13.436;2022-07-29T02:35:23;23.80;56.40
11239;DHT22;5677;48.488;13.436;2022-07-29T02:37:52;23.80;56.40
11239;DHT22;5677;48.488;13.436;2022-07-29T02:40:34;23.80;56.50
11239;DHT22;5677;48.488;13.436;2022-07-29T02:43:05;23.80;56.50
11239;DHT22;5677;48.488;13.436;2022-07-29T02:45:35;23.80;56.50
11239;DHT22;5677;48.488;13.436;2022-07-29T02:48:06;23.80;56.50
11239;DHT22;5677;48.488;13.436;2022-07-29T02:50:45;23.80;56.50
11239;DHT22;5677;48.488;13.436;2022-07-29T02:53:18;23.80;56.50
11239;DHT22;5677;48.488;13.436;2022-07-29T02:55:56;23.80;56.60
11239;DHT22;5677;48.488;13.436;2022-07-29T02:58:25;23.80;56.60
11239;DHT22;5677;48.488;13.436;2022-07-29T03:00:58;23.80;56.60
11239;DHT22;5677;48.488;13.436;2022-07-29T03:03:33;23.80;56.60
11239;DHT22;5677;48.488;13.436;2022-07-29T03:06:03;23.80;56.70
11239;DHT22;5677;48.488;13.436;2022-07-29T03:08:32;23.80;56.70
11239;DHT22;5677;48.488;13.436;2022-07-29T03:11:01;23.80;56.70
11239;DHT22;5677;48.488;13.436;2022-07-29T03:13:30;23.80;56.70
11239;DHT22;5677;48.488;13.436;2022-07-29T03:15:59;23.80;56.70
11239;DHT22;5677;48.488;13.436;2022-07-29T03:18:27;23.80;56.70
11239;DHT22;5677;48.488;13.436;2022-07-29T03:20:54;23.80;56.70
11239;DHT22;5677;48.488;13.436;2022-07-29T03:23:22;23.80;56.80
11239;DHT22;5677;48.488;13.436;2022-07-29T03:25:51;23.80;56.80
11239;DHT22;5677;48.488;13.436;2022-07-29T03:28:19;23.80;56.80
11239;DHT22;5677;48.488;13.436;2022-07-29T03:30:47;23.80;56.80
11239;DHT22;5677;48.488;13.436;2022-07-29T03:33:16;23.80;56.80
11239;DHT22;5677;48.488;13.436;2022-07-29T03:35:43;23.80;56.80
11239;DHT22;5677;48.488;13.436;2022-07-29T03:38:10;23.80;56.80
11239;DHT22;5677;48.488;13.436;2022-07-29T03:40:42;23.80;56.80
11239;DHT22;5677;48.488;13.436;2022-07-29T03:43:18;23.80;56.90
11239;DHT22;5677;48.488;13.436;2022-07-29T03:45:49;23.80;56.90
11239;DHT22;5677;48.488;13.436;2022-07-29T03:48:22;23.80;56.90
11239;DHT22;5677;48.488;13.436;2022-07-29T03:50:51;23.80;56.90
11239;DHT22;5677;48.488;13.436;2022-07-29T03:53:19;23.80;56.90
11239;DHT22;5677;48.488;13.436;2022-07-29T03:55:50;23.80;56.90
11239;DHT22;5677;48.488;13.436;2022-07-29T03:58:20;23.70;56.90
11239;DHT22;5677;48.488;13.436;2022-07-29T04:00:49;23.80;56.90
11239;DHT22;5677;48.488;13.436;2022-07-29T04:03:17;23.70;57.00
11239;DHT22;5677;48.488;13.436;2022-07-29T04:05:58;23.80;57.00
11239;DHT22;5677;48.488;13.436;2022-07-29T04:08:26;23.70;57.00
11239;DHT22;5677;48.488;13.436;2022-07-29T04:10:53;23.70;57.00
11239;DHT22;5677;48.488;13.436;2022-07-29T04:13:20;23.80;57.00
11239;DHT22;5677;48.488;13.436;2022-07-29T04:15:47;23.80;57.00
11239;DHT22;5677;48.488;13.436;2022-07-29T04:18:17;23.80;57.00
11239;DHT22;5677;48.488;13.436;2022-07-29T04:20:43;23.80;57.00
11239;DHT22;5677;48.488;13.436;2022-07-29T04:23:12;23.80;57.00
11239;DHT22;5677;48.488;13.436;2022-07-29T04:25:39;23.70;57.00
11239;DHT22;5677;48.488;13.436;2022-07-29T04:28:07;23.70;57.00
11239;DHT22;5677;48.488;13.436;2022-07-29T04:30:36;23.70;57.00
11239;DHT22;5677;48.488;13.436;2022-07-29T04:33:05;23.70;57.10
11239;DHT22;5677;48.488;13.436;2022-07-29T04:35:35;23.70;57.00
11239;DHT22;5677;48.488;13.436;2022-07-29T04:38:05;23.70;57.10
11239;DHT22;5677;48.488;13.436;2022-07-29T04:40:33;23.70;57.10
11239;DHT22;5677;48.488;13.436;2022-07-29T04:43:00;23.70;57.10
11239;DHT22;5677;48.488;13.436;2022-07-29T04:45:28;23.70;57.10
11239;DHT22;5677;48.488;13.436;2022-07-29T04:47:55;23.70;57.10
11239;DHT22;5677;48.488;13.436;2022-07-29T04:50:22;23.70;57.10
11239;DHT22;5677;48.488;13.436;2022-07-29T04:52:49;23.70;57.10
11239;DHT22;5677;48.488;13.436;2022-07-29T04:55:19;23.70;57.10
11239;DHT22;5677;48.488;13.436;2022-07-29T04:57:46;23.70;57.10
11239;DHT22;5677;48.488;13.436;2022-07-29T05:00:13;23.70;57.10
11239;DHT22;5677;48.488;13.436;2022-07-29T05:02:40;23.70;57.10
11239;DHT22;5677;48.488;13.436;2022-07-29T05:05:07;23.70;57.10
11239;DHT22;5677;48.488;13.436;2022-07-29T05:07:35;23.70;57.10
11239;DHT22;5677;48.488;13.436;2022-07-29T05:10:02;23.70;57.10
11239;DHT22;5677;48.488;13.436;2022-07-29T05:12:31;23.70;57.10
11239;DHT22;5677;48.488;13.436;2022-07-29T05:14:59;23.70;57.10
11239;DHT22;5677;48.488;13.436;2022-07-29T05:17:26;23.70;57.10
11239;DHT22;5677;48.488;13.436;2022-07-29T05:19:53;23.70;57.10
11239;DHT22;5677;48.488;13.436;2022-07-29T05:22:20;23.70;57.10
11239;DHT22;5677;48.488;13.436;2022-07-29T05:24:47;23.70;57.20
11239;DHT22;5677;48.488;13.436;2022-07-29T05:27:14;23.70;57.10
11239;DHT22;5677;48.488;13.436;2022-07-29T05:29:42;23.70;57.10
11239;DHT22;5677;48.488;13.436;2022-07-29T05:32:09;23.70;57.10
11239;DHT22;5677;48.488;13.436;2022-07-29T05:34:37;23.70;57.20
11239;DHT22;5677;48.488;13.436;2022-07-29T05:37:04;23.70;57.20
11239;DHT22;5677;48.488;13.436;2022-07-29T05:39:31;23.70;57.30
11239;DHT22;5677;48.488;13.436;2022-07-29T05:41:58;23.70;57.30
11239;DHT22;5677;48.488;13.436;2022-07-29T05:44:25;23.70;57.20
11239;DHT22;5677;48.488;13.436;2022-07-29T05:46:55;23.70;57.30
11239;DHT22;5677;48.488;13.436;2022-07-29T05:49:22;23.70;57.20
11239;DHT22;5677;48.488;13.436;2022-07-29T05:51:49;23.70;57.20
11239;DHT22;5677;48.488;13.436;2022-07-29T05:54:16;23.70;57.30
11239;DHT22;5677;48.488;13.436;2022-07-29T05:56:43;23.70;57.20
11239;DHT22;5677;48.488;13.436;2022-07-29T05:59:09;23.70;57.20
11239;DHT22;5677;48.488;13.436;2022-07-29T06:01:36;23.70;57.20
11239;DHT22;5677;48.488;13.436;2022-07-29T06:04:06;23.70;57.20
11239;DHT22;5677;48.488;13.436;2022-07-29T06:06:33;23.70;57.20
11239;DHT22;5677;48.488;13.436;2022-07-29T06:09:01;23.70;57.20
11239;DHT22;5677;48.488;13.436;2022-07-29T06:11:29;23.70;57.20
11239;DHT22;5677;48.488;13.436;2022-07-29T06:13:56;23.70;57.20
11239;DHT22;5677;48.488;13.436;2022-07-29T06:16:22;23.70;57.10
11239;DHT22;5677;48.488;13.436;2022-07-29T06:18:52;23.70;57.20
11239;DHT22;5677;48.488;13.436;2022-07-29T06:21:20;23.70;57.20
11239;DHT22;5677;48.488;13.436;2022-07-29T06:23:47;23.70;57.20
11239;DHT22;5677;48.488;13.436;2022-07-29T06:26:14;23.70;57.20
11239;DHT22;5677;48.488;13.436;2022-07-29T06:28:41;23.70;57.20
11239;DHT22;5677;48.488;13.436;2022-07-29T06:31:08;23.70;57.20
11239;DHT22;5677;48.488;13.436;2022-07-29T06:33:35;23.70;57.30
11239;DHT22;5677;48.488;13.436;2022-07-29T06:36:04;23.70;57.20
11239;DHT22;5677;48.488;13.436;2022-07-29T06:38:33;23.70;57.30
11239;DHT22;5677;48.488;13.436;2022-07-29T06:41:00;23.70;57.70
11239;DHT22;5677;48.488;13.436;2022-07-29T06:43:29;23.70;57.60
11239;DHT22;5677;48.488;13.436;2022-07-29T06:46:00;23.70;57.60
11239;DHT22;5677;48.488;13.436;2022-07-29T06:48:28;23.70;57.60
11239;DHT22;5677;48.488;13.436;2022-07-29T06:50:55;23.70;57.50
11239;DHT22;5677;48.488;13.436;2022-07-29T06:53:23;23.70;58.20
11239;DHT22;5677;48.488;13.436;2022-07-29T06:55:51;23.70;57.50
11239;DHT22;5677;48.488;13.436;2022-07-29T06:58:18;23.70;57.50
11239;DHT22;5677;48.488;13.436;2022-07-29T07:00:47;23.70;57.50
11239;DHT22;5677;48.488;13.436;2022-07-29T07:03:14;23.80;57.50
11239;DHT22;5677;48.488;13.436;2022-07-29T07:05:41;23.70;57.50
11239;DHT22;5677;48.488;13.436;2022-07-29T07:08:09;23.80;57.20
11239;DHT22;5677;48.488;13.436;2022-07-29T07:10:37;23.70;57.10
11239;DHT22;5677;48.488;13.436;2022-07-29T07:13:05;23.80;55.30
11239;DHT22;5677;48.488;13.436;2022-07-29T07:15:32;23.70;54.60
11239;DHT22;5677;48.488;13.436;2022-07-29T07:17:59;23.70;55.30
11239;DHT22;5677;48.488;13.436;2022-07-29T07:20:26;23.70;55.30
11239;DHT22;5677;48.488;13.436;2022-07-29T07:22:53;23.80;55.60
11239;DHT22;5677;48.488;13.436;2022-07-29T07:25:20;23.80;55.70
11239;DHT22;5677;48.488;13.436;2022-07-29T07:27:47;23.80;56.00
11239;DHT22;5677;48.488;13.436;2022-07-29T07:30:15;23.80;56.40
11239;DHT22;5677;48.488;13.436;2022-07-29T07:32:43;23.80;56.50
11239;DHT22;5677;48.488;13.436;2022-07-29T07:35:10;23.80;56.50
11239;DHT22;5677;48.488;13.436;2022-07-29T07:37:38;23.90;56.70
11239;DHT22;5677;48.488;13.436;2022-07-29T07:40:08;23.90;56.70
11239;DHT22;5677;48.488;13.436;2022-07-29T07:42:36;23.90;56.80
11239;DHT22;5677;48.488;13.436;2022-07-29T07:45:04;23.80;56.80
11239;DHT22;5677;48.488;13.436;2022-07-29T07:47:33;23.90;56.90
11239;DHT22;5677;48.488;13.436;2022-07-29T07:50:00;23.90;56.90
11239;DHT22;5677;48.488;13.436;2022-07-29T07:52:27;23.80;56.90
11239;DHT22;5677;48.488;13.436;2022-07-29T07:54:54;23.80;56.90
11239;DHT22;5677;48.488;13.436;2022-07-29T07:57:21;23.90;56.80
11239;DHT22;5677;48.488;13.436;2022-07-29T07:59:48;23.80;56.80
11239;DHT22;5677;48.488;13.436;2022-07-29T08:02:15;23.80;56.90
11239;DHT22;5677;48.488;13.436;2022-07-29T08:04:43;23.90;56.90
11239;DHT22;5677;48.488;13.436;2022-07-29T08:07:10;23.90;57.00
11239;DHT22;5677;48.488;13.436;2022-07-29T08:09:37;23.90;57.00
11239;DHT22;5677;48.488;13.436;2022-07-29T08:12:04;23.80;57.00
11239;DHT22;5677;48.488;13.436;2022-07-29T08:14:32;23.90;57.20
11239;DHT22;5677;48.488;13.436;2022-07-29T08:16:59;23.90;57.30
11239;DHT22;5677;48.488;13.436;2022-07-29T08:19:26;23.90;57.30
11239;DHT22;5677;48.488;13.436;2022-07-29T08:21:55;23.90;57.40
11239;DHT22;5677;48.488;13.436;2022-07-29T08:24:22;23.90;57.50
11239;DHT22;5677;48.488;13.436;2022-07-29T08:27:07;23.90;57.30
11239;DHT22;5677;48.488;13.436;2022-07-29T08:29:34;23.90;57.50
11239;DHT22;5677;48.488;13.436;2022-07-29T08:32:01;23.90;57.60
11239;DHT22;5677;48.488;13.436;2022-07-29T08:34:28;23.80;57.50
11239;DHT22;5677;48.488;13.436;2022-07-29T08:36:57;23.90;57.60
11239;DHT22;5677;48.488;13.436;2022-07-29T08:39:24;23.90;57.60
11239;DHT22;5677;48.488;13.436;2022-07-29T08:41:51;23.90;57.60
11239;DHT22;5677;48.488;13.436;2022-07-29T08:44:19;23.90;57.70
11239;DHT22;5677;48.488;13.436;2022-07-29T08:46:47;23.90;57.60
11239;DHT22;5677;48.488;13.436;2022-07-29T08:49:15;24.00;57.60
11239;DHT22;5677;48.488;13.436;2022-07-29T08:51:43;24.00;57.80
11239;DHT22;5677;48.488;13.436;2022-07-29T08:54:16;24.00;57.80
11239;DHT22;5677;48.488;13.436;2022-07-29T08:56:45;24.00;57.80
11239;DHT22;5677;48.488;13.436;2022-07-29T08:59:16;24.10;58.00
11239;DHT22;5677;48.488;13.436;2022-07-29T09:01:46;24.10;58.40
11239;DHT22;5677;48.488;13.436;2022-07-29T09:04:15;24.10;58.40
11239;DHT22;5677;48.488;13.436;2022-07-29T09:06:46;24.10;58.30
11239;DHT22;5677;48.488;13.436;2022-07-29T09:09:15;24.10;58.30
11239;DHT22;5677;48.488;13.436;2022-07-29T09:11:43;24.10;58.20
11239;DHT22;5677;48.488;13.436;2022-07-29T09:14:11;24.10;58.10
11239;DHT22;5677;48.488;13.436;2022-07-29T09:16:51;24.10;58.00
11239;DHT22;5677;48.488;13.436;2022-07-29T09:19:21;24.20;58.00
11239;DHT22;5677;48.488;13.436;2022-07-29T09:21:49;24.20;58.00
11239;DHT22;5677;48.488;13.436;2022-07-29T09:24:40;24.20;57.90
11239;DHT22;5677;48.488;13.436;2022-07-29T09:27:11;24.20;58.00
11239;DHT22;5677;48.488;13.436;2022-07-29T09:29:45;24.20;57.90
11239;DHT22;5677;48.488;13.436;2022-07-29T09:32:12;24.20;57.90
11239;DHT22;5677;48.488;13.436;2022-07-29T09:34:39;24.20;57.80
11239;DHT22;5677;48.488;13.436;2022-07-29T09:37:06;24.20;57.80
11239;DHT22;5677;48.488;13.436;2022-07-29T09:39:35;24.20;57.70
11239;DHT22;5677;48.488;13.436;2022-07-29T09:42:11;24.20;57.70
11239;DHT22;5677;48.488;13.436;2022-07-29T09:44:43;24.20;57.70
11239;DHT22;5677;48.488;13.436;2022-07-29T09:47:12;24.20;57.70
11239;DHT22;5677;48.488;13.436;2022-07-29T09:49:53;24.20;57.70
11239;DHT22;5677;48.488;13.436;2022-07-29T09:52:24;24.20;57.60
11239;DHT22;5677;48.488;13.436;2022-07-29T09:54:52;24.30;57.70
11239;DHT22;5677;48.488;13.436;2022-07-29T09:57:25;24.20;57.60
11239;DHT22;5677;48.488;13.436;2022-07-29T09:59:57;24.20;57.60
11239;DHT22;5677;48.488;13.436;2022-07-29T10:02:30;24.20;57.60
11239;DHT22;5677;48.488;13.436;2022-07-29T10:04:59;24.30;57.60
11239;DHT22;5677;48.488;13.436;2022-07-29T10:07:43;24.20;57.50
11239;DHT22;5677;48.488;13.436;2022-07-29T10:10:17;24.20;57.50
11239;DHT22;5677;48.488;13.436;2022-07-29T10:12:52;24.20;57.50
11239;DHT22;5677;48.488;13.436;2022-07-29T10:15:24;24.20;57.50
11239;DHT22;5677;48.488;13.436;2022-07-29T10:17:53;24.20;57.50
11239;DHT22;5677;48.488;13.436;2022-07-29T10:20:22;24.20;57.40
11239;DHT22;5677;48.488;13.436;2022-07-29T10:22:51;24.20;57.50
11239;DHT22;5677;48.488;13.436;2022-07-29T10:25:19;24.30;57.50
11239;DHT22;5677;48.488;13.436;2022-07-29T10:27:49;24.30;57.50
11239;DHT22;5677;48.488;13.436;2022-07-29T10:30:19;24.30;57.50
11239;DHT22;5677;48.488;13.436;2022-07-29T10:33:09;24.30;57.50
11239;DHT22;5677;48.488;13.436;2022-07-29T10:35:53;24.30;57.50
11239;DHT22;5677;48.488;13.436;2022-07-29T10:38:42;24.30;57.50
11239;DHT22;5677;48.488;13.436;2022-07-29T10:44:30;24.30;57.50
11239;DHT22;5677;48.488;13.436;2022-07-29T10:46:57;24.30;57.40
11239;DHT22;5677;48.488;13.436;2022-07-29T10:49:25;24.30;57.40
11239;DHT22;5677;48.488;13.436;2022-07-29T10:51:54;24.30;57.40
11239;DHT22;5677;48.488;13.436;2022-07-29T10:54:46;24.30;57.40
11239;DHT22;5677;48.488;13.436;2022-07-29T10:57:24;24.30;57.40
11239;DHT22;5677;48.488;13.436;2022-07-29T11:00:28;24.30;57.40
11239;DHT22;5677;48.488;13.436;2022-07-29T11:02:56;24.30;57.40
11239;DHT22;5677;48.488;13.436;2022-07-29T11:05:23;24.30;57.40
11239;DHT22;5677;48.488;13.436;2022-07-29T11:08:24;24.30;57.40
11239;DHT22;5677;48.488;13.436;2022-07-29T11:11:30;24.30;57.40
11239;DHT22;5677;48.488;13.436;2022-07-29T11:14:03;24.30;57.40
11239;DHT22;5677;48.488;13.436;2022-07-29T11:16:58;24.30;57.30
11239;DHT22;5677;48.488;13.436;2022-07-29T11:19:29;24.40;57.30
11239;DHT22;5677;48.488;13.436;2022-07-29T11:21:56;24.30;57.30
11239;DHT22;5677;48.488;13.436;2022-07-29T11:24:26;24.30;57.30
11239;DHT22;5677;48.488;13.436;2022-07-29T11:27:13;24.30;57.30
11239;DHT22;5677;48.488;13.436;2022-07-29T11:29:51;24.30;57.30
11239;DHT22;5677;48.488;13.436;2022-07-29T11:32:20;24.30;57.30
11239;DHT22;5677;48.488;13.436;2022-07-29T11:35:16;24.30;57.30
11239;DHT22;5677;48.488;13.436;2022-07-29T11:37:46;24.30;57.30
11239;DHT22;5677;48.488;13.436;2022-07-29T11:40:33;24.30;57.30
11239;DHT22;5677;48.488;13.436;2022-07-29T11:43:00;24.40;57.30
11239;DHT22;5677;48.488;13.436;2022-07-29T11:45:45;24.40;57.30
11239;DHT22;5677;48.488;13.436;2022-07-29T11:48:17;24.40;57.30
11239;DHT22;5677;48.488;13.436;2022-07-29T11:50:45;24.40;57.20
11239;DHT22;5677;48.488;13.436;2022-07-29T11:53:13;24.40;57.20
11239;DHT22;5677;48.488;13.436;2022-07-29T11:55:41;24.40;57.30
11239;DHT22;5677;48.488;13.436;2022-07-29T11:58:08;24.40;57.30
11239;DHT22;5677;48.488;13.436;2022-07-29T12:00:38;24.40;57.20
11239;DHT22;5677;48.488;13.436;2022-07-29T12:03:08;24.40;57.20
11239;DHT22;5677;48.488;13.436;2022-07-29T12:05:39;24.40;57.20
11239;DHT22;5677;48.488;13.436;2022-07-29T12:08:12;24.40;57.20
11239;DHT22;5677;48.488;13.436;2022-07-29T12:10:42;24.40;57.20
11239;DHT22;5677;48.488;13.436;2022-07-29T12:13:10;24.40;57.20
11239;DHT22;5677;48.488;13.436;2022-07-29T12:15:39;24.50;57.30
11239;DHT22;5677;48.488;13.436;2022-07-29T12:18:13;24.40;57.20
11239;DHT22;5677;48.488;13.436;2022-07-29T12:20:41;24.50;57.30
11239;DHT22;5677;48.488;13.436;2022-07-29T12:23:10;24.50;57.30
11239;DHT22;5677;48.488;13.436;2022-07-29T12:25:39;24.50;57.20
11239;DHT22;5677;48.488;13.436;2022-07-29T12:28:11;24.50;57.20
11239;DHT22;5677;48.488;13.436;2022-07-29T12:30:44;24.50;57.20
11239;DHT22;5677;48.488;13.436;2022-07-29T12:33:19;24.40;57.10
11239;DHT22;5677;48.488;13.436;2022-07-29T12:35:50;24.50;57.20
11239;DHT22;5677;48.488;13.436;2022-07-29T12:38:20;24.50;57.20
11239;DHT22;5677;48.488;13.436;2022-07-29T12:40:48;24.50;57.20
11239;DHT22;5677;48.488;13.436;2022-07-29T12:43:17;24.50;57.90
11239;DHT22;5677;48.488;13.436;2022-07-29T12:45:47;24.50;57.20
11239;DHT22;5677;48.488;13.436;2022-07-29T12:48:16;24.50;57.10
11239;DHT22;5677;48.488;13.436;2022-07-29T12:50:57;24.50;57.10
11239;DHT22;5677;48.488;13.436;2022-07-29T12:53:26;24.50;57.10
11239;DHT22;5677;48.488;13.436;2022-07-29T12:55:55;24.60;57.10
11239;DHT22;5677;48.488;13.436;2022-07-29T12:58:33;24.60;57.20
11239;DHT22;5677;48.488;13.436;2022-07-29T13:01:05;24.60;57.20
11239;DHT22;5677;48.488;13.436;2022-07-29T13:03:45;24.50;57.10
11239;DHT22;5677;48.488;13.436;2022-07-29T13:06:30;24.50;57.20
11239;DHT22;5677;48.488;13.436;2022-07-29T13:09:04;24.50;57.20
11239;DHT22;5677;48.488;13.436;2022-07-29T13:11:34;24.60;57.20
11239;DHT22;5677;48.488;13.436;2022-07-29T13:14:03;24.60;57.10
11239;DHT22;5677;48.488;13.436;2022-07-29T13:16:32;24.60;57.10
11239;DHT22;5677;48.488;13.436;2022-07-29T13:19:10;24.60;57.10
11239;DHT22;5677;48.488;13.436;2022-07-29T13:21:38;24.60;57.10
11239;DHT22;5677;48.488;13.436;2022-07-29T13:24:06;24.60;57.10
11239;DHT22;5677;48.488;13.436;2022-07-29T13:26:34;24.60;57.10
11239;DHT22;5677;48.488;13.436;2022-07-29T13:29:02;24.60;57.10
11239;DHT22;5677;48.488;13.436;2022-07-29T13:31:29;24.60;57.60
11239;DHT22;5677;48.488;13.436;2022-07-29T13:33:58;24.70;56.70
11239;DHT22;5677;48.488;13.436;2022-07-29T13:36:25;24.70;56.70
11239;DHT22;5677;48.488;13.436;2022-07-29T13:38:52;24.70;56.60
11239;DHT22;5677;48.488;13.436;2022-07-29T13:41:19;24.70;56.70
11239;DHT22;5677;48.488;13.436;2022-07-29T13:43:46;24.70;56.70
11239;DHT22;5677;48.488;13.436;2022-07-29T13:46:13;24.70;56.80
11239;DHT22;5677;48.488;13.436;2022-07-29T13:48:39;24.70;56.80
11239;DHT22;5677;48.488;13.436;2022-07-29T13:51:08;24.70;56.80
11239;DHT22;5677;48.488;13.436;2022-07-29T13:53:35;24.70;56.90
11239;DHT22;5677;48.488;13.436;2022-07-29T13:56:02;24.70;56.90
11239;DHT22;5677;48.488;13.436;2022-07-29T13:58:31;24.70;57.00
11239;DHT22;5677;48.488;13.436;2022-07-29T14:00:58;24.70;57.00
11239;DHT22;5677;48.488;13.436;2022-07-29T14:03:25;24.70;57.10
11239;DHT22;5677;48.488;13.436;2022-07-29T14:05:53;24.70;57.10
11239;DHT22;5677;48.488;13.436;2022-07-29T14:08:22;24.60;57.00
11239;DHT22;5677;48.488;13.436;2022-07-29T14:10:49;24.60;56.70
11239;DHT22;5677;48.488;13.436;2022-07-29T14:13:16;24.70;56.60
11239;DHT22;5677;48.488;13.436;2022-07-29T14:15:43;24.70;56.40
11239;DHT22;5677;48.488;13.436;2022-07-29T14:18:10;24.60;56.20
11239;DHT22;5677;48.488;13.436;2022-07-29T14:20:37;24.70;56.20
11239;DHT22;5677;48.488;13.436;2022-07-29T14:23:04;24.70;56.20
11239;DHT22;5677;48.488;13.436;2022-07-29T14:25:32;24.70;56.10
11239;DHT22;5677;48.488;13.436;2022-07-29T14:27:59;24.70;56.10
11239;DHT22;5677;48.488;13.436;2022-07-29T14:30:26;24.70;56.00
11239;DHT22;5677;48.488;13.436;2022-07-29T14:32:53;24.70;55.70
11239;DHT22;5677;48.488;13.436;2022-07-29T14:35:20;24.70;55.70
11239;DHT22;5677;48.488;13.436;2022-07-29T14:37:47;24.70;55.50
11239;DHT22;5677;48.488;13.436;2022-07-29T14:40:14;24.70;55.60
11239;DHT22;5677;48.488;13.436;2022-07-29T14:42:42;24.70;55.90
11239;DHT22;5677;48.488;13.436;2022-07-29T14:45:09;24.70;55.90
11239;DHT22;5677;48.488;13.436;2022-07-29T14:47:37;24.70;56.00
11239;DHT22;5677;48.488;13.436;2022-07-29T14:50:05;24.70;56.10
11239;DHT22;5677;48.488;13.436;2022-07-29T14:52:33;24.70;56.20
11239;DHT22;5677;48.488;13.436;2022-07-29T14:55:00;24.70;56.20
11239;DHT22;5677;48.488;13.436;2022-07-29T14:57:27;24.70;56.30
11239;DHT22;5677;48.488;13.436;2022-07-29T14:59:56;24.70;56.30
11239;DHT22;5677;48.488;13.436;2022-07-29T15:02:23;24.70;56.30
11239;DHT22;5677;48.488;13.436;2022-07-29T15:04:50;24.70;56.30
11239;DHT22;5677;48.488;13.436;2022-07-29T15:07:16;24.70;56.30
11239;DHT22;5677;48.488;13.436;2022-07-29T15:09:43;24.70;56.40
11239;DHT22;5677;48.488;13.436;2022-07-29T15:12:11;24.70;56.40
11239;DHT22;5677;48.488;13.436;2022-07-29T15:14:38;24.70;56.40
11239;DHT22;5677;48.488;13.436;2022-07-29T15:17:07;24.70;56.50
11239;DHT22;5677;48.488;13.436;2022-07-29T15:19:34;24.70;56.50
11239;DHT22;5677;48.488;13.436;2022-07-29T15:22:01;24.70;56.40
11239;DHT22;5677;48.488;13.436;2022-07-29T15:24:30;24.70;56.40
11239;DHT22;5677;48.488;13.436;2022-07-29T15:26:57;24.70;56.50
11239;DHT22;5677;48.488;13.436;2022-07-29T15:29:24;24.70;56.50
11239;DHT22;5677;48.488;13.436;2022-07-29T15:31:51;24.70;56.60
11239;DHT22;5677;48.488;13.436;2022-07-29T15:34:19;24.70;56.50
11239;DHT22;5677;48.488;13.436;2022-07-29T15:36:49;24.70;56.60
11239;DHT22;5677;48.488;13.436;2022-07-29T15:39:16;24.70;56.60
11239;DHT22;5677;48.488;13.436;2022-07-29T15:41:43;24.70;56.60
11239;DHT22;5677;48.488;13.436;2022-07-29T15:44:10;24.70;56.70
11239;DHT22;5677;48.488;13.436;2022-07-29T15:46:37;24.70;56.70
11239;DHT22;5677;48.488;13.436;2022-07-29T15:49:23;24.70;56.70
11239;DHT22;5677;48.488;13.436;2022-07-29T15:51:55;24.70;56.70
11239;DHT22;5677;48.488;13.436;2022-07-29T15:54:23;24.70;56.70